createdAt,value
2022-12-07T00:01:44.637Z,100389.06
2022-12-07T00:04:13.804Z,100383.06
2022-12-07T00:06:43.470Z,100368.34
2022-12-07T00:09:16.488Z,100377.59
2022-12-07T00:11:45.371Z,100391.31
2022-12-07T00:14:15.214Z,100365.75
2022-12-07T00:16:44.091Z,100393.50
2022-12-07T00:19:13.214Z,100377.88
2022-12-07T00:21:41.016Z,100391.16
2022-12-07T00:24:08.519Z,100359.94
2022-12-07T00:26:38.477Z,100382.34
2022-12-07T00:29:10.461Z,100385.03
2022-12-07T00:31:41.630Z,100361.25
2022-12-07T00:34:14.406Z,100391.06
2022-12-07T00:36:42.008Z,100283.38
2022-12-07T00:39:09.657Z,100339.50
2022-12-07T00:41:36.993Z,100378.22
2022-12-07T00:44:04.677Z,100374.53
2022-12-07T00:46:32.014Z,100355.34
2022-12-07T00:48:59.471Z,100376.88
2022-12-07T00:51:27.011Z,100381.47
2022-12-07T00:53:54.301Z,100371.28
2022-12-07T00:56:25.199Z,100355.81
2022-12-07T00:59:00.627Z,100375.47
2022-12-07T01:01:31.370Z,100389.13
2022-12-07T01:03:59.031Z,100372.63
2022-12-07T01:06:26.871Z,100370.75
2022-12-07T01:08:55.084Z,100373.22
2022-12-07T01:11:25.273Z,100352.94
2022-12-07T01:13:54.672Z,100349.84
2022-12-07T01:16:24.332Z,100374.63
2022-12-07T01:18:54.339Z,100352.03
2022-12-07T01:21:23.184Z,100373.50
2022-12-07T01:23:50.661Z,100368.03
2022-12-07T01:26:21.264Z,100356.63
2022-12-07T01:28:49.007Z,100350.41
2022-12-07T01:31:22.056Z,100366.81
2022-12-07T01:33:52.374Z,100332.06
2022-12-07T01:36:35.214Z,100343.94
2022-12-07T01:39:06.361Z,100366.03
2022-12-07T01:41:36.897Z,100337.63
2022-12-07T01:44:15.062Z,100362.66
2022-12-07T01:46:54.455Z,100361.94
2022-12-07T01:49:27.729Z,100364.56
2022-12-07T01:52:25.188Z,100341.50
2022-12-07T01:54:58.513Z,100350.22
2022-12-07T01:57:26.134Z,100333.53
2022-12-07T01:59:56.038Z,100353.31
2022-12-07T02:02:29.178Z,100313.28
2022-12-07T02:04:57.402Z,100338.03
2022-12-07T02:07:25.387Z,100366.63
2022-12-07T02:09:52.739Z,100330.94
2022-12-07T02:12:21.807Z,100338.63
2022-12-07T02:14:52.636Z,100338.38
2022-12-07T02:17:46.855Z,100369.72
2022-12-07T02:20:51.937Z,100361.72
2022-12-07T02:24:04.003Z,100354.69
2022-12-07T02:26:43.208Z,100347.78
2022-12-07T02:29:23.555Z,100346.91
2022-12-07T02:32:15.625Z,100351.13
2022-12-07T02:34:50.423Z,100350.91
2022-12-07T02:37:33.018Z,100345.69
2022-12-07T02:40:27.947Z,100340.47
2022-12-07T02:43:05.890Z,100303.19
2022-12-07T02:45:39.595Z,100312.78
2022-12-07T02:48:09.974Z,100332.84
2022-12-07T02:50:37.397Z,100304.44
2022-12-07T02:53:04.776Z,100307.97
2022-12-07T02:55:41.249Z,100294.19
2022-12-07T02:58:28.390Z,100299.28
2022-12-07T03:01:37.663Z,100322.53
2022-12-07T03:04:23.412Z,100315.59
2022-12-07T03:06:57.829Z,100312.19
2022-12-07T03:09:44.701Z,100288.06
2022-12-07T03:12:23.059Z,100282.06
2022-12-07T03:14:58.199Z,100284.75
2022-12-07T03:17:30.736Z,100261.53
2022-12-07T03:20:03.643Z,100263.38
2022-12-07T03:22:34.990Z,100295.38
2022-12-07T03:25:07.157Z,100253.72
2022-12-07T03:27:50.776Z,100278.78
2022-12-07T03:30:30.867Z,100272.00
2022-12-07T03:33:00.821Z,100270.22
2022-12-07T03:35:34.330Z,100287.59
2022-12-07T03:38:08.011Z,100266.59
2022-12-07T03:40:41.904Z,100293.56
2022-12-07T03:43:09.787Z,100284.84
2022-12-07T03:45:41.628Z,100294.38
2022-12-07T03:48:08.984Z,100296.88
2022-12-07T03:50:59.316Z,100291.72
2022-12-07T03:53:47.534Z,100262.44
2022-12-07T03:56:15.637Z,100261.59
2022-12-07T03:58:44.304Z,100267.75
2022-12-07T04:01:11.823Z,100247.88
2022-12-07T04:03:39.204Z,100250.09
2022-12-07T04:06:06.990Z,100244.78
2022-12-07T04:08:34.387Z,100258.69
2022-12-07T04:11:02.363Z,100247.84
2022-12-07T04:13:29.662Z,100259.03
2022-12-07T04:15:57.038Z,100256.38
2022-12-07T04:18:24.368Z,100261.50
2022-12-07T04:20:51.728Z,100257.13
2022-12-07T04:23:19.048Z,100259.00
2022-12-07T04:25:49.506Z,100267.59
2022-12-07T04:28:16.890Z,100267.63
2022-12-07T04:30:44.205Z,100248.50
2022-12-07T04:33:11.596Z,100278.09
2022-12-07T04:35:38.871Z,100260.81
2022-12-07T04:38:06.172Z,100239.06
2022-12-07T04:40:33.480Z,100260.56
2022-12-07T04:43:00.888Z,100275.34
2022-12-07T04:45:28.363Z,100266.44
2022-12-07T04:47:55.780Z,100261.13
2022-12-07T04:50:23.091Z,100259.38
2022-12-07T04:52:50.791Z,100278.47
2022-12-07T04:55:18.159Z,100242.19
2022-12-07T04:57:45.520Z,100250.72
2022-12-07T05:00:13.008Z,100241.88
2022-12-07T05:02:40.318Z,100238.47
2022-12-07T05:05:08.030Z,100254.09
2022-12-07T05:07:35.361Z,100245.53
2022-12-07T05:10:03.017Z,100218.53
2022-12-07T05:12:30.543Z,100279.97
2022-12-07T05:14:57.864Z,100279.94
2022-12-07T05:17:25.440Z,100266.19
2022-12-07T05:19:52.806Z,100257.72
2022-12-07T05:22:20.143Z,100276.84
2022-12-07T05:24:47.456Z,100261.97
2022-12-07T05:27:14.786Z,100256.75
2022-12-07T05:29:42.058Z,100251.31
2022-12-07T05:32:09.398Z,100293.59
2022-12-07T05:34:36.789Z,100259.97
2022-12-07T05:37:04.091Z,100295.50
2022-12-07T05:39:31.359Z,100253.91
2022-12-07T05:42:14.001Z,100282.34
2022-12-07T05:44:42.951Z,100277.81
2022-12-07T05:47:10.963Z,100288.16
2022-12-07T05:49:38.305Z,100274.16
2022-12-07T05:52:06.077Z,100282.94
2022-12-07T05:54:34.037Z,100301.03
2022-12-07T05:57:01.622Z,100289.84
2022-12-07T05:59:30.077Z,100277.81
2022-12-07T06:02:05.299Z,100300.41
2022-12-07T06:04:36.700Z,100303.28
2022-12-07T06:07:05.237Z,100301.38
2022-12-07T06:09:33.435Z,100305.50
2022-12-07T06:12:19.887Z,100311.19
2022-12-07T06:14:47.427Z,100293.94
2022-12-07T06:17:14.914Z,100287.81
2022-12-07T06:19:42.389Z,100283.06
2022-12-07T06:22:12.657Z,100310.66
2022-12-07T06:24:40.972Z,100284.59
2022-12-07T06:27:09.018Z,100293.13
2022-12-07T06:29:36.348Z,100277.41
2022-12-07T06:32:04.576Z,100301.66
2022-12-07T06:34:31.909Z,100289.56
2022-12-07T06:36:59.305Z,100306.94
2022-12-07T06:39:28.926Z,100293.06
2022-12-07T06:41:56.573Z,100275.72
2022-12-07T06:44:24.667Z,100261.97
2022-12-07T06:47:06.799Z,100252.44
2022-12-07T06:49:40.305Z,100298.59
2022-12-07T06:52:07.578Z,100281.34
2022-12-07T06:54:34.948Z,100281.28
2022-12-07T06:57:02.307Z,100255.53
2022-12-07T06:59:29.676Z,100288.63
2022-12-07T07:01:56.997Z,100275.97
2022-12-07T07:04:24.768Z,100290.13
2022-12-07T07:06:58.190Z,100254.81
2022-12-07T07:09:27.515Z,100257.69
2022-12-07T07:11:54.870Z,100275.81
2022-12-07T07:14:22.924Z,100236.19
2022-12-07T07:16:50.475Z,100272.91
2022-12-07T07:19:17.913Z,100272.91
2022-12-07T07:21:45.304Z,100273.91
2022-12-07T07:24:12.708Z,100256.66
2022-12-07T07:26:40.054Z,100262.88
2022-12-07T07:29:07.367Z,100278.56
2022-12-07T07:31:36.550Z,100260.47
2022-12-07T07:34:04.031Z,100263.41
2022-12-07T07:36:31.479Z,100243.78
2022-12-07T07:38:58.787Z,100283.94
2022-12-07T07:41:26.155Z,100283.34
2022-12-07T07:43:53.494Z,100284.19
2022-12-07T07:46:20.796Z,100271.41
2022-12-07T07:48:48.293Z,100290.50
2022-12-07T07:51:15.745Z,100281.09
2022-12-07T07:53:43.049Z,100239.78
2022-12-07T07:56:10.419Z,100239.81
2022-12-07T07:58:37.752Z,100282.91
2022-12-07T08:01:06.688Z,100284.59
2022-12-07T08:03:34.778Z,100284.63
2022-12-07T08:06:06.740Z,100302.81
2022-12-07T08:08:34.142Z,100290.78
2022-12-07T08:11:02.513Z,100308.97
2022-12-07T08:13:31.397Z,100279.63
2022-12-07T08:15:59.575Z,100315.94
2022-12-07T08:18:26.961Z,100269.28
2022-12-07T08:21:00.107Z,100309.88
2022-12-07T08:23:34.954Z,100283.94
2022-12-07T08:26:09.594Z,100327.06
2022-12-07T08:28:37.596Z,100287.31
2022-12-07T08:31:12.567Z,100332.94
2022-12-07T08:33:40.459Z,100332.09
2022-12-07T08:36:10.804Z,100339.81
2022-12-07T08:38:40.163Z,100342.19
2022-12-07T08:41:08.679Z,100348.28
2022-12-07T08:43:36.671Z,100328.41
2022-12-07T08:46:11.982Z,100341.25
2022-12-07T08:48:47.739Z,100334.31
2022-12-07T08:51:15.210Z,100306.63
2022-12-07T08:53:43.956Z,100356.53
2022-12-07T08:56:11.471Z,100345.28
2022-12-07T08:58:39.984Z,100340.00
2022-12-07T09:01:07.638Z,100313.78
2022-12-07T09:03:35.509Z,100327.31
2022-12-07T09:06:03.261Z,100307.59
2022-12-07T09:08:40.292Z,100314.53
2022-12-07T09:11:07.701Z,100320.66
2022-12-07T09:13:35.111Z,100302.47
2022-12-07T09:16:02.520Z,100302.34
2022-12-07T09:18:29.981Z,100301.44
2022-12-07T09:20:57.884Z,100294.47
2022-12-07T09:23:26.367Z,100303.78
2022-12-07T09:25:53.724Z,100296.03
2022-12-07T09:28:21.040Z,100278.69
2022-12-07T09:31:21.522Z,100288.00
2022-12-07T09:33:36.833Z,100253.41
2022-12-07T09:36:05.352Z,100283.69
2022-12-07T09:38:33.788Z,100285.44
2022-12-07T09:41:08.971Z,100247.25
2022-12-07T09:43:40.470Z,100267.81
2022-12-07T09:46:14.216Z,100243.69
2022-12-07T09:48:43.511Z,100235.66
2022-12-07T09:51:25.616Z,100262.31
2022-12-07T09:53:56.198Z,100238.25
2022-12-07T09:56:24.943Z,100256.13
2022-12-07T09:59:00.349Z,100244.56
2022-12-07T10:01:31.534Z,100215.13
2022-12-07T10:04:07.897Z,100252.50
2022-12-07T10:06:35.264Z,100221.81
2022-12-07T10:09:03.631Z,100227.69
2022-12-07T10:11:30.925Z,100249.31
2022-12-07T10:14:13.160Z,100238.75
2022-12-07T10:16:42.726Z,100246.47
2022-12-07T10:19:34.573Z,100219.88
2022-12-07T10:22:15.398Z,100252.38
2022-12-07T10:24:45.063Z,100229.09
2022-12-07T10:27:31.153Z,100253.19
2022-12-07T10:29:59.653Z,100236.72
2022-12-07T10:32:37.485Z,100247.00
2022-12-07T10:35:30.840Z,100242.84
2022-12-07T10:38:00.804Z,100220.19
2022-12-07T10:40:29.533Z,100242.28
2022-12-07T10:43:17.998Z,100221.47
2022-12-07T10:46:03.455Z,100237.09
2022-12-07T10:48:43.359Z,100232.63
2022-12-07T10:51:10.587Z,100233.72
2022-12-07T10:53:46.724Z,100218.47
2022-12-07T10:56:31.864Z,100228.63
2022-12-07T10:59:21.198Z,100215.03
2022-12-07T11:02:10.414Z,100222.81
2022-12-07T11:05:07.166Z,100217.25
2022-12-07T11:08:05.505Z,100201.09
2022-12-07T11:10:59.089Z,100208.00
2022-12-07T11:13:34.742Z,100207.13
2022-12-07T11:16:08.134Z,100207.63
2022-12-07T11:18:48.894Z,100207.00
2022-12-07T11:21:31.662Z,100208.09
2022-12-07T11:24:14.942Z,100201.41
2022-12-07T11:26:57.428Z,100205.13
2022-12-07T11:29:28.579Z,100198.53
2022-12-07T11:32:14.504Z,100203.81
2022-12-07T11:35:02.447Z,100204.41
2022-12-07T11:37:39.618Z,100186.31
2022-12-07T11:40:21.213Z,100201.31
2022-12-07T11:43:19.170Z,100193.97
2022-12-07T11:46:04.026Z,100183.25
2022-12-07T11:48:56.192Z,100193.59
2022-12-07T11:51:29.020Z,100164.03
2022-12-07T11:54:06.478Z,100162.53
2022-12-07T11:56:38.045Z,100167.03
2022-12-07T11:59:20.633Z,100176.84
2022-12-07T12:02:00.164Z,100151.00
2022-12-07T12:04:49.033Z,100156.63
2022-12-07T12:10:21.999Z,100149.28
2022-12-07T12:16:02.798Z,100160.97
2022-12-07T12:19:12.087Z,100170.09
2022-12-07T12:21:40.501Z,100157.56
2022-12-07T12:24:19.706Z,100146.53
2022-12-07T12:26:53.881Z,100169.06
2022-12-07T12:29:40.817Z,100168.31
2022-12-07T12:32:25.331Z,100161.13
2022-12-07T12:35:03.595Z,100160.91
2022-12-07T12:37:33.926Z,100154.88
2022-12-07T12:40:16.675Z,100154.28
2022-12-07T12:42:52.213Z,100147.53
2022-12-07T12:45:31.122Z,100134.50
2022-12-07T12:47:58.483Z,100157.34
2022-12-07T12:50:39.468Z,100162.03
2022-12-07T12:53:24.179Z,100154.06
2022-12-07T12:56:12.855Z,100161.47
2022-12-07T12:58:42.513Z,100142.13
2022-12-07T13:01:28.447Z,100155.78
2022-12-07T13:03:57.063Z,100164.16
2022-12-07T13:06:27.436Z,100166.00
2022-12-07T13:08:59.273Z,100152.50
2022-12-07T13:11:33.135Z,100166.59
2022-12-07T13:14:41.408Z,100171.09
2022-12-07T13:17:32.738Z,100170.56
2022-12-07T13:20:02.582Z,100152.56
2022-12-07T13:22:32.982Z,100169.03
2022-12-07T13:25:12.365Z,100159.72
2022-12-07T13:27:42.877Z,100152.91
2022-12-07T13:30:19.048Z,100172.66
2022-12-07T13:32:57.203Z,100175.81
2022-12-07T13:35:32.408Z,100159.72
2022-12-07T13:38:00.653Z,100171.72
2022-12-07T13:40:27.949Z,100160.50
2022-12-07T13:43:03.205Z,100161.31
2022-12-07T13:45:50.244Z,100152.81
2022-12-07T13:48:38.388Z,100145.34
2022-12-07T13:51:05.813Z,100157.59
2022-12-07T13:53:33.150Z,100177.44
2022-12-07T13:56:02.315Z,100173.13
2022-12-07T13:58:32.556Z,100167.25
2022-12-07T14:01:00.723Z,100178.50
2022-12-07T14:03:31.534Z,100158.78
2022-12-07T14:06:20.406Z,100178.59
2022-12-07T14:08:47.765Z,100157.19
2022-12-07T14:11:19.732Z,100184.03
2022-12-07T14:14:01.148Z,100177.22
2022-12-07T14:16:34.388Z,100180.09
2022-12-07T14:19:04.895Z,100181.94
2022-12-07T14:21:35.827Z,100176.16
2022-12-07T14:24:19.928Z,100126.41
2022-12-07T14:26:49.748Z,100202.34
2022-12-07T14:29:43.351Z,100193.06
2022-12-07T14:32:30.203Z,100203.59
2022-12-07T14:35:14.634Z,100196.06
2022-12-07T14:37:44.025Z,100208.97
2022-12-07T14:40:23.038Z,100203.09
2022-12-07T14:42:58.250Z,100214.31
2022-12-07T14:45:25.605Z,100195.38
2022-12-07T14:53:37.794Z,100217.06
2022-12-07T14:56:06.768Z,100209.53
2022-12-07T14:58:34.055Z,100206.28
2022-12-07T15:01:01.435Z,100221.75
2022-12-07T15:03:28.886Z,100184.81
2022-12-07T15:05:56.499Z,100211.50
2022-12-07T15:08:23.890Z,100202.00
2022-12-07T15:10:51.269Z,100209.00
2022-12-07T15:13:37.024Z,100238.44
2022-12-07T15:16:04.853Z,100215.91
2022-12-07T15:18:32.238Z,100238.06
2022-12-07T15:20:59.568Z,100203.00
2022-12-07T15:23:26.855Z,100219.56
2022-12-07T15:25:54.154Z,100235.31
2022-12-07T15:28:21.618Z,100218.94
2022-12-07T15:30:49.006Z,100225.00
2022-12-07T15:33:16.645Z,100235.22
2022-12-07T15:35:46.279Z,100248.06
2022-12-07T15:38:13.600Z,100211.09
2022-12-07T15:40:40.979Z,100187.06
2022-12-07T15:43:30.674Z,100241.28
2022-12-07T15:45:58.057Z,100196.63
2022-12-07T15:48:28.237Z,100244.06
2022-12-07T15:51:03.998Z,100251.91
2022-12-07T15:53:31.483Z,100249.38
2022-12-07T15:55:58.751Z,100233.94
2022-12-07T15:58:26.201Z,100275.28
2022-12-07T16:00:53.544Z,100257.91
2022-12-07T16:03:21.053Z,100261.38
2022-12-07T16:05:53.261Z,100257.13
2022-12-07T16:08:20.894Z,100247.63
2022-12-07T16:10:48.238Z,100237.34
2022-12-07T16:13:15.542Z,100273.63
2022-12-07T16:15:44.540Z,100237.53
2022-12-07T16:18:12.011Z,100228.13
2022-12-07T16:20:40.137Z,100271.22
2022-12-07T16:23:08.295Z,100272.94
2022-12-07T16:25:35.557Z,100229.13
2022-12-07T16:28:02.850Z,100275.81
2022-12-07T16:30:30.187Z,100244.88
2022-12-07T16:33:02.234Z,100280.25
2022-12-07T16:35:30.054Z,100232.84
2022-12-07T16:37:57.431Z,100280.38
2022-12-07T16:40:24.758Z,100296.78
2022-12-07T16:42:52.088Z,100292.53
2022-12-07T16:45:21.090Z,100277.03
2022-12-07T16:47:48.534Z,100296.00
2022-12-07T16:50:15.881Z,100298.59
2022-12-07T16:52:43.301Z,100279.16
2022-12-07T16:55:10.568Z,100270.31
2022-12-07T16:57:37.889Z,100279.63
2022-12-07T17:00:05.875Z,100260.59
2022-12-07T17:02:33.131Z,100272.09
2022-12-07T17:05:00.679Z,100280.97
2022-12-07T17:07:28.190Z,100295.78
2022-12-07T17:09:55.586Z,100294.19
2022-12-07T17:12:22.940Z,100274.44
2022-12-07T17:15:09.073Z,100302.97
2022-12-07T17:17:36.447Z,100296.22
2022-12-07T17:20:04.860Z,100252.28
2022-12-07T17:22:32.160Z,100266.94
2022-12-07T17:24:59.508Z,100290.22
2022-12-07T17:27:27.023Z,100295.34
2022-12-07T17:29:54.402Z,100266.94
2022-12-07T17:32:21.730Z,100310.06
2022-12-07T17:34:49.133Z,100277.25
2022-12-07T17:37:16.470Z,100273.00
2022-12-07T17:39:43.840Z,100288.59
2022-12-07T17:42:29.601Z,100335.16
2022-12-07T17:44:57.051Z,100322.34
2022-12-07T17:47:24.533Z,100332.75
2022-12-07T17:49:51.848Z,100326.63
2022-12-07T17:52:37.682Z,100326.69
2022-12-07T17:55:05.804Z,100311.13
2022-12-07T17:57:33.333Z,100281.81
2022-12-07T18:00:00.876Z,100330.94
2022-12-07T18:02:28.263Z,100333.47
2022-12-07T18:04:55.693Z,100296.47
2022-12-07T18:07:23.234Z,100337.03
2022-12-07T18:09:50.526Z,100331.03
2022-12-07T18:12:17.855Z,100337.94
2022-12-07T18:14:45.165Z,100318.13
2022-12-07T18:17:12.477Z,100288.78
2022-12-07T18:19:39.818Z,100348.38
2022-12-07T18:22:07.129Z,100351.81
2022-12-07T18:24:37.048Z,100306.94
2022-12-07T18:27:06.368Z,100352.59
2022-12-07T18:29:33.684Z,100313.78
2022-12-07T18:32:01.502Z,100312.91
2022-12-07T18:34:30.539Z,100334.50
2022-12-07T18:36:57.960Z,100309.44
2022-12-07T18:39:28.504Z,100293.94
2022-12-07T18:42:00.583Z,100343.09
2022-12-07T18:44:27.990Z,100280.13
2022-12-07T18:46:55.973Z,100344.03
2022-12-07T18:49:23.526Z,100319.91
2022-12-07T18:51:50.803Z,100344.88
2022-12-07T18:54:18.169Z,100320.78
2022-12-07T18:56:45.563Z,100348.34
2022-12-07T18:59:32.613Z,100344.88
2022-12-07T19:02:00.023Z,100311.19
2022-12-07T19:04:27.487Z,100301.75
2022-12-07T19:06:55.674Z,100243.94
2022-12-07T19:09:22.922Z,100293.09
2022-12-07T19:11:50.549Z,100337.97
2022-12-07T19:14:30.213Z,100343.16
2022-12-07T19:16:59.961Z,100344.03
2022-12-07T19:19:33.727Z,100336.22
2022-12-07T19:22:01.416Z,100306.06
2022-12-07T19:24:29.402Z,100338.00
2022-12-07T19:26:57.359Z,100312.94
2022-12-07T19:29:24.951Z,100326.75
2022-12-07T19:31:52.260Z,100341.56
2022-12-07T19:34:19.677Z,100338.06
2022-12-07T19:36:47.291Z,100306.09
2022-12-07T19:39:15.889Z,100331.06
2022-12-07T19:41:46.210Z,100335.34
2022-12-07T19:44:20.267Z,100339.69
2022-12-07T19:46:52.490Z,100337.09
2022-12-07T19:49:21.080Z,100304.31
2022-12-07T19:51:50.737Z,100253.44
2022-12-07T19:54:20.709Z,100332.78
2022-12-07T19:56:50.435Z,100272.38
2022-12-07T19:59:19.731Z,100331.94
2022-12-07T20:01:47.361Z,100319.94
2022-12-07T20:04:23.875Z,100342.34
2022-12-07T20:06:53.871Z,100351.00
2022-12-07T20:09:21.551Z,100347.59
2022-12-07T20:12:07.358Z,100352.81
2022-12-07T20:14:35.165Z,100357.06
2022-12-07T20:17:03.036Z,100300.16
2022-12-07T20:19:30.836Z,100326.84
2022-12-07T20:21:58.228Z,100351.81
2022-12-07T20:24:26.210Z,100333.78
2022-12-07T20:26:54.953Z,100344.88
2022-12-07T20:29:24.474Z,100329.38
2022-12-07T20:31:53.586Z,100303.53
2022-12-07T20:34:21.457Z,100271.63
2022-12-07T20:36:48.947Z,100345.03
2022-12-07T20:39:16.844Z,100368.31
2022-12-07T20:42:02.995Z,100353.63
2022-12-07T20:44:30.377Z,100321.66
2022-12-07T20:46:57.795Z,100327.63
2022-12-07T20:49:25.209Z,100331.97
2022-12-07T20:51:52.662Z,100365.78
2022-12-07T20:54:19.975Z,100361.31
2022-12-07T20:56:47.369Z,100336.22
2022-12-07T20:59:16.227Z,100353.59
2022-12-07T21:01:44.619Z,100314.84
2022-12-07T21:04:15.433Z,100350.28
2022-12-07T21:06:42.800Z,100337.38
2022-12-07T21:09:11.882Z,100375.41
2022-12-07T21:11:42.106Z,100360.72
2022-12-07T21:14:09.545Z,100354.69
2022-12-07T21:16:38.992Z,100303.78
2022-12-07T21:19:06.373Z,100365.13
2022-12-07T21:21:34.341Z,100360.78
2022-12-07T21:24:04.647Z,100385.88
2022-12-07T21:26:34.196Z,100388.47
2022-12-07T21:29:06.323Z,100385.03
2022-12-07T21:31:34.735Z,100375.53
2022-12-07T21:34:03.698Z,100353.94
2022-12-07T21:36:31.676Z,100334.94
2022-12-07T21:38:59.280Z,100379.84
2022-12-07T21:41:29.342Z,100385.91
2022-12-07T21:43:57.125Z,100361.72
2022-12-07T21:46:33.348Z,100398.00
2022-12-07T21:49:05.330Z,100396.28
2022-12-07T21:51:32.764Z,100397.13
2022-12-07T21:54:01.120Z,100394.53
2022-12-07T21:56:46.997Z,100391.97
2022-12-07T21:59:17.721Z,100390.22
2022-12-07T22:01:47.324Z,100389.38
2022-12-07T22:04:21.006Z,100385.06
2022-12-07T22:06:49.337Z,100380.72
2022-12-07T22:09:18.935Z,100376.41
2022-12-07T22:11:47.046Z,100380.69
2022-12-07T22:14:33.326Z,100355.66
2022-12-07T22:17:00.726Z,100359.97
2022-12-07T22:19:28.686Z,100381.59
2022-12-07T22:21:56.085Z,100378.13
2022-12-07T22:24:23.460Z,100375.53
2022-12-07T22:26:50.747Z,100376.41
2022-12-07T22:29:18.034Z,100354.78
2022-12-07T22:31:49.211Z,100347.03
2022-12-07T22:34:20.716Z,100353.91
2022-12-07T22:36:48.484Z,100344.41
2022-12-07T22:39:15.847Z,100340.94
2022-12-07T22:41:43.134Z,100346.13
2022-12-07T22:44:10.556Z,100353.00
2022-12-07T22:46:38.188Z,100355.59
2022-12-07T22:49:06.275Z,100373.75
2022-12-07T22:51:36.040Z,100360.78
2022-12-07T22:54:05.810Z,100375.50
2022-12-07T22:56:36.060Z,100336.63
2022-12-07T22:59:05.239Z,100346.13
2022-12-07T23:01:32.748Z,100353.91
2022-12-07T23:04:00.122Z,100358.25
2022-12-07T23:06:32.261Z,100363.44
2022-12-07T23:09:01.635Z,100328.88
2022-12-07T23:11:49.553Z,100349.59
2022-12-07T23:14:26.923Z,100349.53
2022-12-07T23:16:54.269Z,100348.69
2022-12-07T23:19:21.834Z,100363.38
2022-12-07T23:21:49.494Z,100315.06
2022-12-07T23:24:16.926Z,100353.06
2022-12-07T23:26:45.365Z,100340.09
2022-12-07T23:29:17.502Z,100343.53
2022-12-07T23:31:46.890Z,100283.09
2022-12-07T23:34:14.382Z,100286.41
2022-12-07T23:36:41.703Z,100319.28
2022-12-07T23:39:09.884Z,100312.44
2022-12-07T23:41:37.161Z,100299.50
2022-12-07T23:44:04.930Z,100309.84
2022-12-07T23:46:33.632Z,100287.38
2022-12-07T23:49:03.340Z,100288.28
2022-12-07T23:51:30.652Z,100297.72
2022-12-07T23:53:59.493Z,100315.88
2022-12-07T23:56:28.976Z,100335.75
2022-12-07T23:58:57.555Z,100357.34
